createdAt,value
2022-11-09T00:01:41.511Z,100239.22
2022-11-09T00:04:08.361Z,100243.13
2022-11-09T00:06:35.670Z,100236.19
2022-11-09T00:09:07.903Z,100237.25
2022-11-09T00:11:35.552Z,100234.59
2022-11-09T00:14:01.892Z,100231.94
2022-11-09T00:16:28.256Z,100232.63
2022-11-09T00:18:55.893Z,100232.81
2022-11-09T00:21:24.216Z,100233.94
2022-11-09T00:23:51.137Z,100222.66
2022-11-09T00:26:19.540Z,100234.00
2022-11-09T00:28:45.929Z,100229.81
2022-11-09T00:31:15.106Z,100222.66
2022-11-09T00:33:41.485Z,100220.09
2022-11-09T00:36:11.350Z,100218.69
2022-11-09T00:38:40.528Z,100220.34
2022-11-09T00:41:09.406Z,100221.34
2022-11-09T00:43:36.366Z,100212.00
2022-11-09T00:46:03.192Z,100204.72
2022-11-09T00:48:30.013Z,100214.28
2022-11-09T00:50:57.566Z,100214.88
2022-11-09T00:53:24.963Z,100217.38
2022-11-09T00:55:58.884Z,100215.53
2022-11-09T00:58:27.646Z,100212.31
2022-11-09T01:00:55.608Z,100223.06
2022-11-09T01:03:23.096Z,100221.66
2022-11-09T01:05:50.056Z,100223.13
2022-11-09T01:08:16.978Z,100227.78
2022-11-09T01:10:45.361Z,100226.13
2022-11-09T01:13:13.283Z,100230.19
2022-11-09T01:15:44.435Z,100223.56
2022-11-09T01:18:11.431Z,100232.31
2022-11-09T01:20:46.488Z,100232.97
2022-11-09T01:23:14.413Z,100244.75
2022-11-09T01:25:41.410Z,100244.41
2022-11-09T01:28:09.085Z,100241.75
2022-11-09T01:30:40.025Z,100250.66
2022-11-09T01:33:08.658Z,100242.16
2022-11-09T01:35:36.913Z,100243.78
2022-11-09T01:38:05.070Z,100250.91
2022-11-09T01:40:33.158Z,100260.09
2022-11-09T01:43:24.997Z,100257.69
2022-11-09T01:46:03.496Z,100253.63
2022-11-09T01:48:39.882Z,100252.59
2022-11-09T01:51:12.641Z,100251.56
2022-11-09T01:53:43.498Z,100249.50
2022-11-09T01:56:13.458Z,100256.06
2022-11-09T01:58:54.869Z,100247.28
2022-11-09T02:01:21.508Z,100248.75
2022-11-09T02:03:56.915Z,100245.28
2022-11-09T02:06:27.302Z,100246.34
2022-11-09T02:08:55.644Z,100239.88
2022-11-09T02:11:24.083Z,100238.28
2022-11-09T02:13:56.770Z,100239.53
2022-11-09T02:16:23.783Z,100240.53
2022-11-09T02:18:55.423Z,100239.34
2022-11-09T02:21:25.232Z,100240.59
2022-11-09T02:23:52.173Z,100243.88
2022-11-09T02:26:27.487Z,100244.06
2022-11-09T02:28:55.360Z,100252.41
2022-11-09T02:31:24.780Z,100245.13
2022-11-09T02:33:51.071Z,100244.13
2022-11-09T02:36:17.650Z,100248.59
2022-11-09T02:38:44.145Z,100238.41
2022-11-09T02:41:12.833Z,100247.59
2022-11-09T02:43:40.363Z,100237.19
2022-11-09T02:46:06.696Z,100239.25
2022-11-09T02:48:33.097Z,100249.00
2022-11-09T02:50:59.405Z,100245.28
2022-11-09T02:53:25.861Z,100240.75
2022-11-09T02:55:52.249Z,100244.63
2022-11-09T02:58:18.599Z,100246.47
2022-11-09T03:00:45.005Z,100239.53
2022-11-09T03:03:11.578Z,100246.25
2022-11-09T03:05:37.977Z,100245.47
2022-11-09T03:08:04.611Z,100248.88
2022-11-09T03:10:31.027Z,100248.47
2022-11-09T03:12:57.379Z,100241.53
2022-11-09T03:15:23.758Z,100249.59
2022-11-09T03:17:50.120Z,100243.09
2022-11-09T03:20:16.692Z,100245.53
2022-11-09T03:22:43.033Z,100248.63
2022-11-09T03:25:09.712Z,100250.59
2022-11-09T03:27:36.064Z,100254.53
2022-11-09T03:30:02.451Z,100252.88
2022-11-09T03:32:28.758Z,100248.75
2022-11-09T03:34:55.149Z,100245.91
2022-11-09T03:37:21.558Z,100252.00
2022-11-09T03:39:48.090Z,100253.63
2022-11-09T03:42:14.394Z,100253.19
2022-11-09T03:44:40.770Z,100252.97
2022-11-09T03:47:07.116Z,100267.41
2022-11-09T03:49:33.469Z,100263.66
2022-11-09T03:51:59.851Z,100269.78
2022-11-09T03:54:26.235Z,100273.69
2022-11-09T03:56:52.621Z,100269.63
2022-11-09T03:59:19.117Z,100271.25
2022-11-09T04:01:45.619Z,100267.41
2022-11-09T04:04:11.974Z,100265.38
2022-11-09T04:06:38.413Z,100263.75
2022-11-09T04:09:04.798Z,100272.28
2022-11-09T04:11:31.188Z,100268.41
2022-11-09T04:13:57.576Z,100277.38
2022-11-09T04:16:24.007Z,100283.50
2022-11-09T04:18:50.477Z,100270.25
2022-11-09T04:21:21.455Z,100285.91
2022-11-09T04:23:49.968Z,100272.59
2022-11-09T04:26:16.376Z,100279.38
2022-11-09T04:28:42.684Z,100274.50
2022-11-09T04:31:09.072Z,100279.97
2022-11-09T04:33:35.560Z,100276.31
2022-11-09T04:36:05.305Z,100275.09
2022-11-09T04:38:32.190Z,100292.81
2022-11-09T04:41:03.427Z,100289.16
2022-11-09T04:43:29.965Z,100295.84
2022-11-09T04:45:59.778Z,100293.22
2022-11-09T04:48:26.179Z,100292.38
2022-11-09T04:50:52.487Z,100302.56
2022-11-09T04:53:18.899Z,100311.00
2022-11-09T04:55:45.307Z,100300.22
2022-11-09T04:58:11.733Z,100310.22
2022-11-09T05:00:38.380Z,100306.84
2022-11-09T05:03:06.423Z,100319.63
2022-11-09T05:05:34.698Z,100309.75
2022-11-09T05:08:01.703Z,100322.56
2022-11-09T05:10:28.179Z,100323.00
2022-11-09T05:13:06.626Z,100326.16
2022-11-09T05:15:33.459Z,100323.09
2022-11-09T05:18:01.518Z,100319.50
2022-11-09T05:20:28.840Z,100317.50
2022-11-09T05:23:13.926Z,100324.03
2022-11-09T05:25:40.283Z,100321.22
2022-11-09T05:28:06.625Z,100317.13
2022-11-09T05:30:33.040Z,100310.78
2022-11-09T05:32:59.363Z,100309.38
2022-11-09T05:35:25.791Z,100310.44
2022-11-09T05:37:52.102Z,100322.03
2022-11-09T05:40:20.128Z,100319.38
2022-11-09T05:42:46.818Z,100318.78
2022-11-09T05:45:40.865Z,100316.59
2022-11-09T05:48:03.963Z,100310.25
2022-11-09T05:50:30.342Z,100303.75
2022-11-09T05:52:59.418Z,100308.19
2022-11-09T05:55:26.206Z,100303.53
2022-11-09T05:57:52.636Z,100304.78
2022-11-09T06:00:19.374Z,100304.59
2022-11-09T06:02:45.851Z,100298.66
2022-11-09T06:05:12.191Z,100294.38
2022-11-09T06:07:38.548Z,100297.88
2022-11-09T06:10:05.879Z,100295.66
2022-11-09T06:12:32.257Z,100296.84
2022-11-09T06:14:58.587Z,100298.09
2022-11-09T06:17:25.022Z,100299.94
2022-11-09T06:19:51.462Z,100301.38
2022-11-09T06:22:17.941Z,100302.19
2022-11-09T06:24:44.333Z,100294.47
2022-11-09T06:27:10.697Z,100310.56
2022-11-09T06:29:37.134Z,100304.81
2022-11-09T06:32:03.660Z,100308.56
2022-11-09T06:34:30.635Z,100314.22
2022-11-09T06:36:57.049Z,100307.69
2022-11-09T06:39:23.379Z,100313.63
2022-11-09T06:41:49.806Z,100324.22
2022-11-09T06:44:16.237Z,100324.66
2022-11-09T06:46:42.713Z,100335.25
2022-11-09T06:49:09.228Z,100332.56
2022-11-09T06:51:35.623Z,100340.91
2022-11-09T06:54:02.034Z,100345.78
2022-11-09T06:56:28.425Z,100348.06
2022-11-09T06:58:55.419Z,100346.47
2022-11-09T07:01:25.587Z,100357.47
2022-11-09T07:03:52.024Z,100351.56
2022-11-09T07:06:18.522Z,100351.56
2022-11-09T07:08:44.908Z,100359.09
2022-11-09T07:11:13.778Z,100361.75
2022-11-09T07:13:40.217Z,100364.63
2022-11-09T07:16:07.264Z,100362.56
2022-11-09T07:18:34.341Z,100371.34
2022-11-09T07:21:00.888Z,100373.38
2022-11-09T07:23:27.254Z,100375.22
2022-11-09T07:25:53.975Z,100373.00
2022-11-09T07:28:20.420Z,100375.44
2022-11-09T07:30:50.251Z,100381.94
2022-11-09T07:33:22.679Z,100370.56
2022-11-09T07:35:49.479Z,100378.31
2022-11-09T07:38:16.059Z,100372.44
2022-11-09T07:40:43.253Z,100374.25
2022-11-09T07:43:10.835Z,100377.69
2022-11-09T07:45:37.885Z,100378.72
2022-11-09T07:48:08.502Z,100380.56
2022-11-09T07:50:36.413Z,100385.63
2022-11-09T07:53:03.280Z,100385.19
2022-11-09T07:55:30.326Z,100385.78
2022-11-09T07:58:01.629Z,100390.63
2022-11-09T08:00:30.041Z,100400.59
2022-11-09T08:02:57.244Z,100406.81
2022-11-09T08:05:24.075Z,100407.88
2022-11-09T08:07:57.810Z,100415.56
2022-11-09T08:10:26.450Z,100412.81
2022-11-09T08:13:01.541Z,100409.50
2022-11-09T08:15:28.809Z,100409.03
2022-11-09T08:17:59.034Z,100417.41
2022-11-09T08:20:25.367Z,100415.88
2022-11-09T08:22:51.698Z,100422.34
2022-11-09T08:25:18.211Z,100428.00
2022-11-09T08:27:44.605Z,100419.56
2022-11-09T08:30:14.582Z,100423.56
2022-11-09T08:32:42.451Z,100429.84
2022-11-09T08:35:10.853Z,100427.81
2022-11-09T08:37:38.391Z,100430.69
2022-11-09T08:40:06.650Z,100437.00
2022-11-09T08:42:33.048Z,100427.34
2022-11-09T08:44:59.433Z,100426.91
2022-11-09T08:47:25.828Z,100432.63
2022-11-09T08:49:52.158Z,100428.25
2022-11-09T08:52:18.535Z,100424.00
2022-11-09T08:54:44.972Z,100424.69
2022-11-09T08:57:11.705Z,100424.25
2022-11-09T08:59:38.144Z,100436.25
2022-11-09T09:02:04.902Z,100437.81
2022-11-09T09:04:31.358Z,100439.16
2022-11-09T09:06:57.869Z,100436.50
2022-11-09T09:09:24.287Z,100441.69
2022-11-09T09:11:50.686Z,100428.75
2022-11-09T09:14:17.226Z,100426.88
2022-11-09T09:16:43.656Z,100433.59
2022-11-09T09:19:10.000Z,100438.72
2022-11-09T09:21:36.362Z,100434.06
2022-11-09T09:24:03.216Z,100431.84
2022-11-09T09:26:29.725Z,100441.28
2022-11-09T09:28:56.074Z,100433.84
2022-11-09T09:31:22.919Z,100444.69
2022-11-09T09:33:49.349Z,100447.19
2022-11-09T09:36:21.338Z,100437.97
2022-11-09T09:38:51.554Z,100434.25
2022-11-09T09:41:23.692Z,100452.72
2022-11-09T09:43:54.064Z,100454.41
2022-11-09T09:46:41.713Z,100457.03
2022-11-09T09:49:15.270Z,100472.72
2022-11-09T09:51:51.255Z,100466.94
2022-11-09T09:54:25.528Z,100469.59
2022-11-09T09:56:55.536Z,100473.66
2022-11-09T09:59:34.878Z,100479.94
2022-11-09T10:02:01.323Z,100480.13
2022-11-09T10:04:37.230Z,100484.28
2022-11-09T10:07:30.515Z,100496.88
2022-11-09T10:10:16.518Z,100483.84
2022-11-09T10:12:56.883Z,100484.66
2022-11-09T10:15:36.131Z,100496.72
2022-11-09T10:18:28.172Z,100485.44
2022-11-09T10:21:13.561Z,100491.84
2022-11-09T10:23:55.847Z,100490.19
2022-11-09T10:26:41.012Z,100497.50
2022-11-09T10:29:33.694Z,100511.81
2022-11-09T10:32:16.230Z,100504.78
2022-11-09T10:34:56.545Z,100497.19
2022-11-09T10:37:38.937Z,100498.66
2022-11-09T10:40:08.018Z,100502.34
2022-11-09T10:42:35.187Z,100498.75
2022-11-09T10:45:12.641Z,100501.31
2022-11-09T10:47:50.575Z,100505.66
2022-11-09T10:50:38.275Z,100513.53
2022-11-09T10:53:23.821Z,100512.31
2022-11-09T10:56:02.343Z,100503.06
2022-11-09T10:58:37.456Z,100502.75
2022-11-09T11:01:13.333Z,100506.16
2022-11-09T11:03:40.835Z,100512.25
2022-11-09T11:06:14.825Z,100511.69
2022-11-09T11:08:44.460Z,100515.69
2022-11-09T11:11:37.824Z,100496.53
2022-11-09T11:14:10.621Z,100511.38
2022-11-09T11:16:38.570Z,100510.00
2022-11-09T11:19:05.133Z,100507.16
2022-11-09T11:21:31.814Z,100510.31
2022-11-09T11:24:03.865Z,100515.03
2022-11-09T11:26:36.973Z,100502.97
2022-11-09T11:29:29.308Z,100501.75
2022-11-09T11:31:55.713Z,100503.19
2022-11-09T11:34:45.655Z,100532.91
2022-11-09T11:37:11.167Z,100496.75
2022-11-09T11:39:51.462Z,100506.44
2022-11-09T11:42:28.581Z,100491.66
2022-11-09T11:45:38.930Z,100495.75
2022-11-09T11:48:26.655Z,100495.59
2022-11-09T11:51:17.681Z,100495.25
2022-11-09T11:54:06.266Z,100517.78
2022-11-09T11:56:46.029Z,100507.28
2022-11-09T11:59:33.251Z,100506.13
2022-11-09T12:02:21.140Z,100507.69
2022-11-09T12:05:22.618Z,100509.09
2022-11-09T12:08:07.127Z,100514.94
2022-11-09T12:10:44.449Z,100502.94
2022-11-09T12:13:30.774Z,100529.28
2022-11-09T12:16:08.371Z,100519.41
2022-11-09T12:18:45.731Z,100511.16
2022-11-09T12:21:21.989Z,100502.66
2022-11-09T12:24:18.430Z,100508.25
2022-11-09T12:27:30.578Z,100511.81
2022-11-09T12:30:01.596Z,100517.78
2022-11-09T12:32:42.567Z,100513.97
2022-11-09T12:35:08.848Z,100514.34
2022-11-09T12:37:51.579Z,100505.56
2022-11-09T12:40:32.289Z,100506.81
2022-11-09T12:43:20.875Z,100509.06
2022-11-09T12:45:49.363Z,100509.34
2022-11-09T12:48:29.109Z,100517.25
2022-11-09T12:50:56.016Z,100527.19
2022-11-09T12:53:25.424Z,100521.06
2022-11-09T12:56:07.669Z,100519.78
2022-11-09T12:58:36.749Z,100525.28
2022-11-09T13:01:06.522Z,100528.53
2022-11-09T13:03:36.440Z,100522.78
2022-11-09T13:06:10.776Z,100536.16
2022-11-09T13:08:38.492Z,100535.22
2022-11-09T13:11:17.972Z,100529.44
2022-11-09T13:13:45.108Z,100526.84
2022-11-09T13:16:33.278Z,100531.81
2022-11-09T13:18:59.685Z,100544.13
2022-11-09T13:21:25.989Z,100531.00
2022-11-09T13:24:02.655Z,100529.91
2022-11-09T13:26:33.130Z,100536.06
2022-11-09T13:29:14.896Z,100543.38
2022-11-09T13:32:22.272Z,100545.00
2022-11-09T13:35:04.907Z,100547.22
2022-11-09T13:37:43.443Z,100543.56
2022-11-09T13:40:31.688Z,100545.03
2022-11-09T13:43:08.601Z,100547.69
2022-11-09T13:45:37.059Z,100547.78
2022-11-09T13:48:05.654Z,100552.78
2022-11-09T13:50:34.261Z,100546.88
2022-11-09T13:53:02.267Z,100575.09
2022-11-09T13:55:37.937Z,100566.19
2022-11-09T13:58:23.409Z,100553.47
2022-11-09T14:00:49.949Z,100564.09
2022-11-09T14:03:27.916Z,100553.91
2022-11-09T14:05:58.174Z,100574.19
2022-11-09T14:08:29.405Z,100575.06
2022-11-09T14:11:10.662Z,100566.22
2022-11-09T14:13:39.746Z,100573.00
2022-11-09T14:16:14.059Z,100587.63
2022-11-09T14:19:10.106Z,100583.19
2022-11-09T14:21:47.689Z,100595.78
2022-11-09T14:24:20.701Z,100588.13
2022-11-09T14:27:10.152Z,100586.28
2022-11-09T14:29:46.644Z,100584.75
2022-11-09T14:32:23.965Z,100592.47
2022-11-09T14:34:50.416Z,100593.38
2022-11-09T14:37:17.255Z,100597.09
2022-11-09T14:39:47.959Z,100604.69
2022-11-09T14:42:23.052Z,100611.00
2022-11-09T14:44:50.095Z,100608.03
2022-11-09T14:47:21.902Z,100621.06
2022-11-09T14:49:49.796Z,100618.50
2022-11-09T14:52:21.088Z,100628.19
2022-11-09T14:54:49.283Z,100636.19
2022-11-09T14:57:17.183Z,100636.25
2022-11-09T14:59:45.135Z,100658.09
2022-11-09T15:02:18.729Z,100648.19
2022-11-09T15:04:51.764Z,100649.47
2022-11-09T15:07:20.944Z,100643.44
2022-11-09T15:09:51.357Z,100644.44
2022-11-09T15:12:20.049Z,100647.34
2022-11-09T15:14:53.415Z,100645.50
2022-11-09T15:17:30.519Z,100649.38
2022-11-09T15:20:16.653Z,100654.84
2022-11-09T15:23:15.136Z,100655.09
2022-11-09T15:25:41.414Z,100664.44
2022-11-09T15:28:13.617Z,100665.66
2022-11-09T15:30:46.382Z,100670.16
2022-11-09T15:33:24.186Z,100674.44
2022-11-09T15:35:56.364Z,100666.28
2022-11-09T15:38:42.341Z,100669.53
2022-11-09T15:41:20.169Z,100676.06
2022-11-09T15:43:46.929Z,100673.22
2022-11-09T15:46:23.562Z,100685.63
2022-11-09T15:48:50.528Z,100682.59
2022-11-09T15:51:17.648Z,100683.78
2022-11-09T15:53:44.192Z,100681.31
2022-11-09T15:56:22.843Z,100682.97
2022-11-09T15:58:52.359Z,100682.38
2022-11-09T16:01:19.070Z,100689.28
2022-11-09T16:03:45.454Z,100691.31
2022-11-09T16:06:17.424Z,100699.69
2022-11-09T16:08:43.815Z,100699.66
2022-11-09T16:11:10.489Z,100709.03
2022-11-09T16:13:36.947Z,100718.41
2022-11-09T16:16:05.223Z,100710.06
2022-11-09T16:18:31.965Z,100713.91
2022-11-09T16:21:06.464Z,100721.47
2022-11-09T16:23:32.841Z,100717.59
2022-11-09T16:25:59.734Z,100721.06
2022-11-09T16:28:26.067Z,100718.41
2022-11-09T16:30:52.513Z,100731.41
2022-11-09T16:33:18.842Z,100732.63
2022-11-09T16:35:45.215Z,100737.91
2022-11-09T16:38:11.546Z,100747.88
2022-11-09T16:40:38.414Z,100749.91
2022-11-09T16:43:04.943Z,100747.69
2022-11-09T16:45:33.643Z,100757.25
2022-11-09T16:48:03.769Z,100753.78
2022-11-09T16:50:30.421Z,100753.56
2022-11-09T16:52:56.768Z,100761.91
2022-11-09T16:55:23.154Z,100768.81
2022-11-09T16:57:49.535Z,100768.16
2022-11-09T17:00:16.778Z,100773.44
2022-11-09T17:02:43.182Z,100770.00
2022-11-09T17:05:09.591Z,100773.66
2022-11-09T17:07:42.179Z,100782.41
2022-11-09T17:10:09.637Z,100775.47
2022-11-09T17:12:36.014Z,100788.09
2022-11-09T17:15:02.383Z,100783.59
2022-11-09T17:17:28.845Z,100790.34
2022-11-09T17:19:55.223Z,100799.88
2022-11-09T17:22:21.595Z,100804.16
2022-11-09T17:24:47.965Z,100808.44
2022-11-09T17:27:14.344Z,100802.72
2022-11-09T17:29:40.747Z,100804.97
2022-11-09T17:32:09.530Z,100818.81
2022-11-09T17:34:36.000Z,100815.13
2022-11-09T17:37:04.842Z,100828.53
2022-11-09T17:39:32.202Z,100826.31
2022-11-09T17:41:58.622Z,100837.50
2022-11-09T17:44:24.999Z,100849.31
2022-11-09T17:46:51.520Z,100839.13
2022-11-09T17:49:17.918Z,100848.28
2022-11-09T17:51:44.331Z,100851.75
2022-11-09T17:54:10.913Z,100852.56
2022-11-09T17:56:37.312Z,100862.53
2022-11-09T17:59:05.352Z,100855.38
2022-11-09T18:01:36.407Z,100860.06
2022-11-09T18:04:06.837Z,100866.38
2022-11-09T18:06:33.497Z,100869.19
2022-11-09T18:09:34.402Z,100871.22
2022-11-09T18:11:46.377Z,100881.13
2022-11-09T18:14:13.156Z,100889.03
2022-11-09T18:16:39.476Z,100891.28
2022-11-09T18:19:06.522Z,100893.91
2022-11-09T18:21:33.621Z,100891.06
2022-11-09T18:24:00.419Z,100895.09
2022-11-09T18:26:26.838Z,100903.59
2022-11-09T18:28:55.771Z,100911.69
2022-11-09T18:31:22.181Z,100914.13
2022-11-09T18:33:49.722Z,100912.88
2022-11-09T18:36:18.525Z,100908.22
2022-11-09T18:38:45.487Z,100922.84
2022-11-09T18:41:14.765Z,100925.06
2022-11-09T18:43:41.446Z,100938.25
2022-11-09T18:46:10.356Z,100943.72
2022-11-09T18:48:37.628Z,100946.56
2022-11-09T18:51:06.249Z,100943.09
2022-11-09T18:53:40.695Z,100950.97
2022-11-09T18:56:21.482Z,100951.38
2022-11-09T18:58:49.755Z,100960.75
2022-11-09T19:01:16.748Z,100960.34
2022-11-09T19:03:43.340Z,100966.75
2022-11-09T19:06:13.905Z,100969.47
2022-11-09T19:08:59.417Z,100976.94
2022-11-09T19:11:26.176Z,100978.09
2022-11-09T19:13:53.714Z,100981.97
2022-11-09T19:16:21.248Z,100976.53
2022-11-09T19:18:47.707Z,100978.97
2022-11-09T19:21:33.234Z,100990.31
2022-11-09T19:23:59.527Z,100993.56
2022-11-09T19:26:25.881Z,100990.59
2022-11-09T19:28:52.253Z,100992.41
2022-11-09T19:31:21.840Z,100989.03
2022-11-09T19:33:48.270Z,100991.03
2022-11-09T19:36:29.721Z,101000.34
2022-11-09T19:38:57.881Z,100997.13
2022-11-09T19:41:25.419Z,101007.41
2022-11-09T19:43:54.479Z,100999.84
2022-11-09T19:46:21.528Z,101001.53
2022-11-09T19:48:48.017Z,101004.16
2022-11-09T19:51:15.980Z,101008.81
2022-11-09T19:53:47.930Z,101011.66
2022-11-09T19:56:14.414Z,101015.94
2022-11-09T19:58:40.765Z,101018.88
2022-11-09T20:01:09.535Z,101020.69
2022-11-09T20:03:36.064Z,101022.34
2022-11-09T20:06:04.980Z,101027.16
2022-11-09T20:08:36.305Z,101037.28
2022-11-09T20:11:07.688Z,101037.66
2022-11-09T20:13:34.773Z,101040.47
2022-11-09T20:16:03.070Z,101047.59
2022-11-09T20:18:30.249Z,101055.88
2022-11-09T20:20:56.748Z,101061.72
2022-11-09T20:23:23.131Z,101061.25
2022-11-09T20:25:49.495Z,101079.91
2022-11-09T20:28:15.856Z,101089.00
2022-11-09T20:30:42.234Z,101078.72
2022-11-09T20:33:09.720Z,101086.66
2022-11-09T20:35:36.300Z,101093.50
2022-11-09T20:38:02.703Z,101098.94
2022-11-09T20:40:29.128Z,101104.69
2022-11-09T20:42:55.628Z,101104.69
2022-11-09T20:45:22.069Z,101111.38
2022-11-09T20:48:07.541Z,101110.50
2022-11-09T20:50:34.757Z,101114.84
2022-11-09T20:53:01.108Z,101119.22
2022-11-09T20:55:27.556Z,101118.13
2022-11-09T20:57:54.637Z,101117.69
2022-11-09T21:00:24.382Z,101124.59
2022-11-09T21:02:51.100Z,101126.03
2022-11-09T21:05:17.491Z,101128.25
2022-11-09T21:07:44.194Z,101128.78
2022-11-09T21:10:10.524Z,101133.25
2022-11-09T21:12:36.962Z,101129.28
2022-11-09T21:15:03.969Z,101141.03
2022-11-09T21:17:30.347Z,101140.22
2022-11-09T21:19:56.712Z,101136.22
2022-11-09T21:22:43.054Z,101139.56
2022-11-09T21:25:27.691Z,101143.03
2022-11-09T21:28:12.544Z,101143.66
2022-11-09T21:30:38.952Z,101143.03
2022-11-09T21:33:05.313Z,101151.13
2022-11-09T21:35:31.714Z,101147.47
2022-11-09T21:37:58.532Z,101151.25
2022-11-09T21:40:25.121Z,101157.34
2022-11-09T21:42:51.434Z,101157.81
2022-11-09T21:45:17.919Z,101158.97
2022-11-09T21:47:44.426Z,101165.84
2022-11-09T21:50:12.844Z,101158.75
2022-11-09T21:52:39.438Z,101154.44
2022-11-09T21:55:06.269Z,101164.38
2022-11-09T21:57:32.636Z,101162.38
2022-11-09T21:59:58.967Z,101167.38
2022-11-09T22:02:25.337Z,101169.00
2022-11-09T22:04:51.653Z,101174.78
2022-11-09T22:07:18.205Z,101173.34
2022-11-09T22:10:08.780Z,101179.44
2022-11-09T22:12:56.127Z,101178.16
2022-11-09T22:15:41.150Z,101185.44
2022-11-09T22:18:07.760Z,101174.25
2022-11-09T22:20:52.958Z,101183.06
2022-11-09T22:23:19.619Z,101183.44
2022-11-09T22:25:48.047Z,101185.69
2022-11-09T22:28:14.538Z,101176.34
2022-11-09T22:30:40.901Z,101185.59
2022-11-09T22:33:07.228Z,101186.59
2022-11-09T22:35:34.087Z,101180.50
2022-11-09T22:38:02.001Z,101194.31
2022-11-09T22:40:28.429Z,101188.06
2022-11-09T22:42:56.099Z,101192.69
2022-11-09T22:45:22.498Z,101192.16
2022-11-09T22:47:48.898Z,101197.16
2022-11-09T22:50:15.352Z,101198.03
2022-11-09T22:52:41.673Z,101201.50
2022-11-09T22:55:08.480Z,101202.13
2022-11-09T22:57:37.001Z,101204.97
2022-11-09T23:00:04.068Z,101207.28
2022-11-09T23:02:30.379Z,101217.72
2022-11-09T23:04:56.740Z,101220.03
2022-11-09T23:07:23.056Z,101223.66
2022-11-09T23:09:49.423Z,101228.94
2022-11-09T23:12:15.973Z,101223.84
2022-11-09T23:15:01.127Z,101241.31
2022-11-09T23:17:45.895Z,101237.56
2022-11-09T23:20:12.269Z,101238.25
2022-11-09T23:22:38.585Z,101235.97
2022-11-09T23:25:23.997Z,101245.03
2022-11-09T23:27:51.914Z,101254.94
2022-11-09T23:30:18.904Z,101255.59
2022-11-09T23:32:45.289Z,101258.41
2022-11-09T23:35:11.868Z,101258.75
2022-11-09T23:37:38.467Z,101261.94
2022-11-09T23:40:05.660Z,101263.22
2022-11-09T23:42:32.087Z,101273.28
2022-11-09T23:44:58.554Z,101276.28
2022-11-09T23:47:24.960Z,101278.03
2022-11-09T23:49:51.416Z,101286.13
2022-11-09T23:52:18.067Z,101295.19
2022-11-09T23:54:45.594Z,101294.38
2022-11-09T23:57:12.883Z,101302.63
2022-11-09T23:59:39.202Z,101309.53
